Strona główna
METAR-TAF:

METAR-TAF

Lotnisko :

Sanford Regional Airport

Sanford, Maine, Stany Zjednoczone

Szerokość geograficzna: 43-24N, Długość geograficzna: 070-43W, wysokość: 74 m

Aktualna obserwacja pogody

Raport powstał 39 minut temu, godzina 01:56 UTC
Wiatr 5 kt od południowy zachód
Temperatura 0°C
Wilgotność 74%
Ciśnienie 1017 hPa
Widzialność: 16.1 km
Mało chmury na wysokości 4300 ft

METAR: KSFM 170156Z AUTO 22005KT 10SM FEW043 00/M04 A3004 RMK AO2 SLP179 T00001044 FZRANO PNO $

czas: 21:35 (02:35 UTC)


TAF: brakujący

Obserwacja i prognoza pogody dla ponad 4000 lotnisk (raport METAR i TAF).

Dostępne stacje oznaczono żółtymi i czerwonymi punktami na mapie.

Najedź kursorem aby zobaczyć nazwę stacji.

Kliknij aby zobaczyć obserwacje i prognozy pogody.

Aby zmienić mapę: kliknij na zielony przycisk z czarnym krzyżykiem, aby powiększyć; na zielony przycisk z myślnikiem, aby pomniejszyć; na zielone strzałki, aby przejść do map sąsiednich.


METAR-TAF: